createdAt,value
2023-02-17T00:00:57.808Z,39.63
2023-02-17T00:03:26.050Z,38.63
2023-02-17T00:05:55.400Z,37.90
2023-02-17T00:08:23.584Z,30.47
2023-02-17T00:10:58.678Z,39.30
2023-02-17T00:13:26.667Z,40.70
2023-02-17T00:15:55.053Z,40.70
2023-02-17T00:18:23.553Z,39.27
2023-02-17T00:20:51.644Z,37.30
2023-02-17T00:23:20.850Z,38.17
2023-02-17T00:25:48.778Z,36.83
2023-02-17T00:28:16.660Z,34.90
2023-02-17T00:30:44.524Z,36.00
2023-02-17T00:33:12.365Z,36.40
2023-02-17T00:35:42.609Z,37.23
2023-02-17T00:38:10.462Z,41.33
2023-02-17T00:40:41.838Z,37.57
2023-02-17T00:43:09.706Z,37.27
2023-02-17T00:45:37.572Z,38.10
2023-02-17T00:48:05.413Z,41.23
2023-02-17T00:50:33.216Z,40.00
2023-02-17T00:53:01.040Z,40.23
2023-02-17T00:55:28.981Z,41.43
2023-02-17T00:57:58.498Z,38.23
2023-02-17T01:00:26.563Z,40.37
2023-02-17T01:02:54.507Z,40.23
2023-02-17T01:05:23.472Z,44.20
2023-02-17T01:07:51.416Z,45.97
2023-02-17T01:10:19.696Z,43.83
2023-02-17T01:12:48.531Z,38.97
2023-02-17T01:15:17.908Z,42.53
2023-02-17T01:17:45.738Z,43.23
2023-02-17T01:20:13.885Z,40.47
2023-02-17T01:22:42.086Z,41.00
2023-02-17T01:25:10.173Z,42.23
2023-02-17T01:27:38.086Z,40.10
2023-02-17T01:30:07.257Z,40.17
2023-02-17T01:32:37.978Z,39.90
2023-02-17T01:35:06.438Z,38.60
2023-02-17T01:37:36.478Z,37.10
2023-02-17T01:40:04.868Z,38.27
2023-02-17T01:42:32.779Z,38.50
2023-02-17T01:45:46.370Z,40.13
2023-02-17T01:48:19.456Z,40.83
2023-02-17T01:50:53.181Z,41.00
2023-02-17T01:53:25.743Z,39.80
2023-02-17T01:55:55.522Z,40.10
2023-02-17T01:58:25.795Z,41.10
2023-02-17T02:00:56.751Z,36.73
2023-02-17T02:03:27.339Z,39.73
2023-02-17T02:05:56.507Z,38.20
2023-02-17T02:08:24.563Z,40.30
2023-02-17T02:10:54.710Z,40.90
2023-02-17T02:13:22.957Z,40.20
2023-02-17T02:15:58.614Z,41.80
2023-02-17T02:18:40.815Z,31.87
2023-02-17T02:21:48.253Z,40.17
2023-02-17T02:24:38.843Z,37.53
2023-02-17T02:27:29.569Z,42.67
2023-02-17T02:30:36.886Z,42.60
2023-02-17T02:33:11.185Z,37.40
2023-02-17T02:35:47.345Z,37.83
2023-02-17T02:38:21.027Z,40.30
2023-02-17T02:40:55.085Z,40.27
2023-02-17T02:43:24.723Z,40.20
2023-02-17T02:45:52.705Z,40.47
2023-02-17T02:48:22.406Z,35.90
2023-02-17T02:51:02.619Z,38.23
2023-02-17T02:53:58.045Z,41.50
2023-02-17T02:56:41.983Z,39.57
2023-02-17T02:59:23.679Z,39.27
2023-02-17T03:01:58.001Z,39.10
2023-02-17T03:04:36.543Z,37.17
2023-02-17T03:07:12.205Z,39.50
2023-02-17T03:09:42.305Z,39.30
2023-02-17T03:12:13.806Z,38.70
2023-02-17T03:14:44.342Z,38.13
2023-02-17T03:17:12.729Z,40.70
2023-02-17T03:19:42.401Z,41.20
2023-02-17T03:22:18.034Z,40.57
2023-02-17T03:24:48.754Z,40.33
2023-02-17T03:27:16.715Z,37.37
2023-02-17T03:29:44.721Z,39.47
2023-02-17T03:32:12.875Z,39.93
2023-02-17T03:34:42.151Z,40.10
2023-02-17T03:37:09.975Z,41.63
2023-02-17T03:39:38.023Z,38.20
2023-02-17T03:42:05.999Z,41.03
2023-02-17T03:44:34.039Z,44.10
2023-02-17T03:47:01.953Z,41.73
2023-02-17T03:49:30.325Z,42.10
2023-02-17T03:51:59.649Z,42.77
2023-02-17T03:54:28.209Z,42.40
2023-02-17T03:56:56.121Z,42.47
2023-02-17T03:59:24.412Z,42.20
2023-02-17T04:01:52.301Z,42.60
2023-02-17T04:04:20.248Z,40.90
2023-02-17T04:06:48.166Z,43.60
2023-02-17T04:09:17.406Z,42.60
2023-02-17T04:11:45.628Z,45.93
2023-02-17T04:14:13.623Z,43.70
2023-02-17T04:16:41.779Z,43.70
2023-02-17T04:19:09.706Z,45.87
2023-02-17T04:21:37.535Z,43.87
2023-02-17T04:24:05.826Z,46.60
2023-02-17T04:26:35.106Z,45.60
2023-02-17T04:29:05.659Z,47.97
2023-02-17T04:31:33.610Z,44.40
2023-02-17T04:34:01.698Z,43.17
2023-02-17T04:36:29.861Z,42.37
2023-02-17T04:38:57.735Z,43.40
2023-02-17T04:41:25.659Z,43.77
2023-02-17T04:43:54.917Z,48.57
2023-02-17T04:46:22.799Z,44.00
2023-02-17T04:48:50.633Z,45.83
2023-02-17T04:51:18.466Z,44.50
2023-02-17T04:53:46.299Z,41.57
2023-02-17T04:56:14.504Z,39.07
2023-02-17T04:58:42.508Z,38.47
2023-02-17T05:01:11.919Z,41.70
2023-02-17T05:03:39.891Z,41.40
2023-02-17T05:06:08.530Z,41.50
2023-02-17T05:08:36.448Z,38.17
2023-02-17T05:11:04.461Z,39.70
2023-02-17T05:13:33.158Z,40.80
2023-02-17T05:16:01.126Z,40.67
2023-02-17T05:18:30.440Z,41.87
2023-02-17T05:20:58.560Z,39.33
2023-02-17T05:23:26.546Z,44.13
2023-02-17T05:25:54.482Z,39.67
2023-02-17T05:28:22.415Z,43.73
2023-02-17T05:30:51.080Z,40.10
2023-02-17T05:33:19.010Z,42.37
2023-02-17T05:35:48.220Z,41.33
2023-02-17T05:38:16.150Z,40.73
2023-02-17T05:40:44.077Z,42.40
2023-02-17T05:43:12.017Z,41.00
2023-02-17T05:45:39.901Z,44.80
2023-02-17T05:48:07.877Z,42.50
2023-02-17T05:50:35.711Z,44.00
2023-02-17T05:53:05.290Z,42.27
2023-02-17T05:55:33.182Z,44.30
2023-02-17T05:58:01.134Z,47.23
2023-02-17T06:00:29.054Z,42.67
2023-02-17T06:02:57.194Z,44.10
2023-02-17T06:05:25.134Z,43.53
2023-02-17T06:07:52.993Z,45.77
2023-02-17T06:10:22.698Z,40.97
2023-02-17T06:12:50.618Z,43.43
2023-02-17T06:15:18.780Z,45.07
2023-02-17T06:17:46.637Z,49.63
2023-02-17T06:20:15.011Z,54.50
2023-02-17T06:22:43.258Z,52.40
2023-02-17T06:25:11.303Z,49.53
2023-02-17T06:27:42.099Z,46.50
2023-02-17T06:30:10.886Z,46.70
2023-02-17T06:32:38.799Z,47.37
2023-02-17T06:35:07.238Z,43.80
2023-02-17T06:37:35.087Z,43.33
2023-02-17T06:40:03.038Z,44.03
2023-02-17T06:42:30.951Z,44.30
2023-02-17T06:45:00.871Z,45.93
2023-02-17T06:47:28.876Z,45.27
2023-02-17T06:49:56.718Z,47.03
2023-02-17T06:52:24.680Z,43.90
2023-02-17T06:54:52.720Z,45.50
2023-02-17T06:57:20.679Z,42.10
2023-02-17T06:59:48.557Z,40.57
2023-02-17T07:02:17.943Z,39.70
2023-02-17T07:04:45.894Z,37.30
2023-02-17T07:07:13.826Z,36.90
2023-02-17T07:09:41.993Z,38.93
2023-02-17T07:12:10.153Z,41.10
2023-02-17T07:14:38.093Z,43.97
2023-02-17T07:17:06.170Z,40.50
2023-02-17T07:19:35.402Z,41.67
2023-02-17T07:22:03.777Z,47.00
2023-02-17T07:24:31.730Z,49.17
2023-02-17T07:27:00.860Z,47.23
2023-02-17T07:29:29.089Z,47.43
2023-02-17T07:31:57.054Z,49.40
2023-02-17T07:34:25.233Z,45.47
2023-02-17T07:36:54.443Z,45.40
2023-02-17T07:39:22.362Z,47.33
2023-02-17T07:41:50.220Z,44.10
2023-02-17T07:44:19.648Z,42.50
2023-02-17T07:46:47.623Z,47.07
2023-02-17T07:49:15.618Z,48.53
2023-02-17T07:51:43.559Z,46.53
2023-02-17T07:54:18.933Z,46.77
2023-02-17T07:56:46.853Z,45.20
2023-02-17T07:59:15.617Z,45.80
2023-02-17T08:01:43.844Z,36.13
2023-02-17T08:04:11.891Z,43.23
2023-02-17T08:06:40.702Z,46.50
2023-02-17T08:09:25.966Z,47.63
2023-02-17T08:12:12.646Z,43.90
2023-02-17T08:14:40.645Z,44.03
2023-02-17T08:17:09.052Z,42.13
2023-02-17T08:19:47.556Z,44.90
2023-02-17T08:22:17.368Z,40.10
2023-02-17T08:24:45.480Z,45.10
2023-02-17T08:27:15.851Z,44.87
2023-02-17T08:29:44.442Z,43.50
2023-02-17T08:32:12.810Z,43.83
2023-02-17T08:34:40.827Z,46.50
2023-02-17T08:37:09.036Z,43.80
2023-02-17T08:39:37.942Z,42.90
2023-02-17T08:42:06.811Z,44.27
2023-02-17T08:44:37.645Z,43.03
2023-02-17T08:47:06.752Z,41.97
2023-02-17T08:49:34.904Z,42.80
2023-02-17T08:52:03.071Z,40.83
2023-02-17T08:54:31.016Z,39.57
2023-02-17T08:56:59.593Z,39.97
2023-02-17T08:59:27.474Z,41.13
2023-02-17T09:01:56.745Z,42.33
2023-02-17T09:04:24.833Z,40.20
2023-02-17T09:06:55.972Z,41.63
2023-02-17T09:09:26.791Z,41.70
2023-02-17T09:11:55.747Z,41.50
2023-02-17T09:14:25.057Z,37.77
2023-02-17T09:16:53.657Z,42.00
2023-02-17T09:19:23.305Z,37.97
2023-02-17T09:21:51.381Z,39.90
2023-02-17T09:24:19.732Z,39.83
2023-02-17T09:26:47.563Z,38.53
2023-02-17T09:29:15.563Z,40.20
2023-02-17T09:31:44.021Z,40.30
2023-02-17T09:34:11.980Z,38.23
2023-02-17T09:36:43.186Z,40.40
2023-02-17T09:39:13.891Z,37.90
2023-02-17T09:41:45.236Z,40.90
2023-02-17T09:44:21.741Z,40.37
2023-02-17T09:47:02.268Z,37.97
2023-02-17T09:49:37.309Z,37.50
2023-02-17T09:52:13.736Z,40.87
2023-02-17T09:54:50.622Z,37.63
2023-02-17T09:57:22.820Z,39.13
2023-02-17T09:59:55.131Z,38.00
2023-02-17T10:02:28.617Z,38.77
2023-02-17T10:04:58.960Z,37.53
2023-02-17T10:07:33.182Z,40.00
2023-02-17T10:10:08.355Z,38.33
2023-02-17T10:12:41.252Z,40.40
2023-02-17T10:15:17.852Z,38.13
2023-02-17T10:17:51.759Z,39.30
2023-02-17T10:20:24.547Z,37.60
2023-02-17T10:23:00.894Z,38.00
2023-02-17T10:25:45.634Z,38.83
2023-02-17T10:28:22.898Z,36.43
2023-02-17T10:31:00.994Z,37.60
2023-02-17T10:33:35.804Z,37.80
2023-02-17T10:36:13.114Z,37.37
2023-02-17T10:38:51.238Z,40.33
2023-02-17T10:41:23.809Z,40.70
2023-02-17T10:43:52.423Z,39.30
2023-02-17T10:46:29.182Z,38.63
2023-02-17T10:49:01.570Z,37.53
2023-02-17T10:51:31.921Z,36.10
2023-02-17T10:54:04.796Z,36.80
2023-02-17T10:56:36.876Z,35.47
2023-02-17T10:59:09.925Z,38.57
2023-02-17T11:01:38.211Z,37.47
2023-02-17T11:04:08.714Z,36.80
2023-02-17T11:06:42.344Z,34.40
2023-02-17T11:09:21.299Z,35.07
2023-02-17T11:11:58.482Z,36.73
2023-02-17T11:14:28.910Z,35.80
2023-02-17T11:17:00.247Z,39.17
2023-02-17T11:19:30.559Z,35.43
2023-02-17T11:22:00.046Z,37.90
2023-02-17T11:24:31.238Z,36.07
2023-02-17T11:27:01.328Z,37.47
2023-02-17T11:29:30.454Z,35.80
2023-02-17T11:32:00.279Z,36.23
2023-02-17T11:34:30.473Z,36.33
2023-02-17T11:37:00.667Z,35.53
2023-02-17T11:39:30.257Z,36.30
2023-02-17T11:41:58.544Z,36.90
2023-02-17T11:44:28.009Z,36.33
2023-02-17T11:47:07.026Z,33.93
2023-02-17T11:49:58.478Z,36.77
2023-02-17T11:52:38.361Z,36.43
2023-02-17T11:55:19.092Z,33.63
2023-02-17T11:58:05.422Z,31.47
2023-02-17T12:00:43.481Z,30.70
2023-02-17T12:03:36.949Z,32.40
2023-02-17T12:06:13.435Z,31.23
2023-02-17T12:08:56.313Z,30.50
2023-02-17T12:11:37.463Z,31.80
2023-02-17T12:14:19.865Z,28.87
2023-02-17T12:16:56.520Z,30.17
2023-02-17T12:19:41.273Z,32.23
2023-02-17T12:22:18.278Z,28.97
2023-02-17T12:24:57.293Z,30.20
2023-02-17T12:27:39.387Z,31.00
2023-02-17T12:30:25.018Z,29.40
2023-02-17T12:33:18.146Z,28.13
2023-02-17T12:35:52.836Z,28.30
2023-02-17T12:38:26.866Z,28.97
2023-02-17T12:40:59.483Z,28.13
2023-02-17T12:43:35.356Z,28.70
2023-02-17T12:46:08.977Z,27.50
2023-02-17T12:48:41.773Z,28.13
2023-02-17T12:51:16.402Z,29.03
2023-02-17T12:53:50.050Z,27.30
2023-02-17T12:56:41.712Z,26.70
2023-02-17T12:59:17.134Z,26.50
2023-02-17T13:01:54.116Z,28.57
2023-02-17T13:04:26.218Z,25.43
2023-02-17T13:07:01.760Z,26.67
2023-02-17T13:09:34.264Z,24.43
2023-02-17T13:12:17.300Z,27.40
2023-02-17T13:14:49.282Z,27.20
2023-02-17T13:17:25.991Z,30.17
2023-02-17T13:20:25.011Z,28.50
2023-02-17T13:23:05.255Z,28.43
2023-02-17T13:25:37.667Z,27.03
2023-02-17T13:28:34.266Z,27.83
2023-02-17T13:31:16.178Z,26.77
2023-02-17T13:33:47.460Z,27.03
2023-02-17T13:36:22.381Z,27.43
2023-02-17T13:38:59.817Z,26.90
2023-02-17T13:41:28.772Z,25.90
2023-02-17T13:43:56.840Z,28.97
2023-02-17T13:46:27.729Z,27.63
2023-02-17T13:49:04.393Z,29.23
2023-02-17T13:51:33.918Z,29.67
2023-02-17T13:54:10.050Z,29.37
2023-02-17T13:56:38.126Z,28.93
2023-02-17T13:59:11.093Z,29.13
2023-02-17T14:01:43.252Z,28.13
2023-02-17T14:04:23.213Z,29.60
2023-02-17T14:06:52.681Z,28.37
2023-02-17T14:09:26.211Z,27.20
2023-02-17T14:11:55.430Z,28.83
2023-02-17T14:14:25.819Z,29.07
2023-02-17T14:17:01.648Z,30.80
2023-02-17T14:19:30.551Z,28.60
2023-02-17T14:22:01.337Z,27.77
2023-02-17T14:24:32.010Z,31.87
2023-02-17T14:27:03.202Z,53.70
2023-02-17T14:29:41.864Z,52.67
2023-02-17T14:32:29.256Z,30.00
2023-02-17T14:35:08.370Z,31.73
2023-02-17T14:37:36.999Z,28.63
2023-02-17T14:40:07.897Z,25.37
2023-02-17T14:42:35.825Z,27.60
2023-02-17T14:45:03.778Z,29.90
2023-02-17T14:47:33.112Z,29.03
2023-02-17T14:50:00.919Z,30.43
2023-02-17T14:52:28.984Z,29.30
2023-02-17T14:54:56.871Z,28.40
2023-02-17T14:57:28.701Z,29.50
2023-02-17T14:59:57.774Z,45.80
2023-02-17T15:02:25.970Z,33.87
2023-02-17T15:04:55.330Z,30.37
2023-02-17T15:07:24.013Z,29.90
2023-02-17T15:09:51.977Z,30.03
2023-02-17T15:12:22.005Z,30.17
2023-02-17T15:14:49.969Z,28.97
2023-02-17T15:17:18.017Z,30.63
2023-02-17T15:19:45.927Z,31.80
2023-02-17T15:22:15.636Z,30.73
2023-02-17T15:24:43.570Z,30.97
2023-02-17T15:27:14.960Z,30.60
2023-02-17T15:29:42.787Z,32.53
2023-02-17T15:32:18.806Z,30.47
2023-02-17T15:34:47.081Z,28.53
2023-02-17T15:37:16.372Z,31.50
2023-02-17T15:39:44.247Z,30.37
2023-02-17T15:42:15.075Z,33.20
2023-02-17T15:44:46.816Z,33.13
2023-02-17T15:47:18.251Z,28.60
2023-02-17T15:49:46.396Z,29.97
2023-02-17T15:52:16.191Z,29.57
2023-02-17T15:54:44.687Z,29.40
2023-02-17T15:57:22.289Z,31.63
2023-02-17T15:59:50.595Z,32.87
2023-02-17T16:02:21.418Z,31.90
2023-02-17T16:04:49.935Z,32.63
2023-02-17T16:07:19.460Z,32.87
2023-02-17T16:09:47.342Z,38.03
2023-02-17T16:12:18.868Z,38.60
2023-02-17T16:14:47.262Z,36.40
2023-02-17T16:17:17.609Z,39.07
2023-02-17T16:19:45.610Z,36.93
2023-02-17T16:22:14.196Z,35.83
2023-02-17T16:24:43.705Z,34.37
2023-02-17T16:27:16.168Z,35.40
2023-02-17T16:29:44.560Z,32.20
2023-02-17T16:32:13.327Z,32.97
2023-02-17T16:34:41.900Z,32.73
2023-02-17T16:37:15.874Z,33.27
2023-02-17T16:39:45.962Z,35.60
2023-02-17T16:42:15.504Z,35.07
2023-02-17T16:44:44.257Z,33.60
2023-02-17T16:47:20.539Z,36.17
2023-02-17T16:49:50.258Z,36.83
2023-02-17T16:52:24.861Z,36.50
2023-02-17T16:54:54.573Z,35.80
2023-02-17T16:57:23.127Z,37.57
2023-02-17T16:59:51.201Z,37.13
2023-02-17T17:02:21.532Z,35.57
2023-02-17T17:04:49.602Z,40.00
2023-02-17T17:07:18.057Z,37.57
2023-02-17T17:10:06.985Z,37.23
2023-02-17T17:12:35.547Z,37.40
2023-02-17T17:15:03.895Z,41.70
2023-02-17T17:17:37.926Z,46.37
2023-02-17T17:20:06.730Z,50.80
2023-02-17T17:22:34.712Z,43.10
2023-02-17T17:25:02.721Z,39.93
2023-02-17T17:27:30.638Z,41.00
2023-02-17T17:29:59.960Z,43.00
2023-02-17T17:32:29.043Z,42.20
2023-02-17T17:34:57.034Z,43.47
2023-02-17T17:37:24.918Z,43.83
2023-02-17T17:39:52.785Z,49.90
2023-02-17T17:42:20.662Z,45.83
2023-02-17T17:44:48.534Z,54.37
2023-02-17T17:47:29.893Z,48.60
2023-02-17T17:49:58.763Z,42.87
2023-02-17T17:52:26.925Z,43.90
2023-02-17T17:54:54.842Z,45.17
2023-02-17T17:57:23.239Z,44.57
2023-02-17T17:59:51.235Z,42.47
2023-02-17T18:02:20.573Z,41.63
2023-02-17T18:04:48.708Z,44.50
2023-02-17T18:07:17.066Z,42.90
2023-02-17T18:09:45.165Z,40.37
2023-02-17T18:12:17.123Z,44.50
2023-02-17T18:14:45.849Z,44.97
2023-02-17T18:17:15.373Z,41.73
2023-02-17T18:19:46.269Z,41.47
2023-02-17T18:22:14.259Z,43.13
2023-02-17T18:24:42.223Z,41.00
2023-02-17T18:27:10.085Z,42.83
2023-02-17T18:29:38.329Z,42.10
2023-02-17T18:32:06.454Z,43.67
2023-02-17T18:34:34.439Z,43.60
2023-02-17T18:37:03.704Z,42.40
2023-02-17T18:39:31.600Z,43.07
2023-02-17T18:41:59.566Z,41.87
2023-02-17T18:44:27.613Z,41.53
2023-02-17T18:46:55.508Z,41.87
2023-02-17T18:49:23.380Z,40.27
2023-02-17T18:51:51.825Z,41.80
2023-02-17T18:54:21.132Z,41.37
2023-02-17T18:56:48.978Z,41.20
2023-02-17T18:59:16.991Z,40.20
2023-02-17T19:01:45.060Z,45.03
2023-02-17T19:04:13.034Z,43.37
2023-02-17T19:06:41.178Z,48.17
2023-02-17T19:09:09.526Z,48.27
2023-02-17T19:11:38.794Z,44.20
2023-02-17T19:14:06.687Z,41.80
2023-02-17T19:16:35.114Z,41.63
2023-02-17T19:19:03.140Z,42.07
2023-02-17T19:21:31.172Z,39.90
2023-02-17T19:23:58.987Z,42.27
2023-02-17T19:26:26.877Z,42.30
2023-02-17T19:28:56.104Z,56.47
2023-02-17T19:31:24.644Z,45.53
2023-02-17T19:33:52.526Z,41.97
2023-02-17T19:36:22.182Z,42.97
2023-02-17T19:38:51.241Z,43.77
2023-02-17T19:41:20.691Z,41.07
2023-02-17T19:43:48.781Z,44.63
2023-02-17T19:46:21.093Z,42.57
2023-02-17T19:48:49.164Z,44.73
2023-02-17T19:51:17.050Z,45.00
2023-02-17T19:53:45.020Z,46.40
2023-02-17T19:56:15.229Z,45.13
2023-02-17T19:58:44.150Z,46.20
2023-02-17T20:01:13.593Z,46.37
2023-02-17T20:03:43.025Z,46.37
2023-02-17T20:06:13.012Z,44.97
2023-02-17T20:08:40.964Z,44.60
2023-02-17T20:11:10.590Z,44.33
2023-02-17T20:13:45.659Z,44.50
2023-02-17T20:16:15.932Z,44.93
2023-02-17T20:18:48.257Z,45.93
2023-02-17T20:21:17.925Z,45.80
2023-02-17T20:23:46.030Z,44.13
2023-02-17T20:26:16.894Z,59.90
2023-02-17T20:28:44.818Z,59.30
2023-02-17T20:31:13.530Z,57.67
2023-02-17T20:33:41.858Z,47.43
2023-02-17T20:36:11.853Z,45.47
2023-02-17T20:38:40.051Z,46.07
2023-02-17T20:41:09.782Z,46.00
2023-02-17T20:43:38.685Z,48.07
2023-02-17T20:46:08.065Z,42.60
2023-02-17T20:48:36.058Z,44.20
2023-02-17T20:51:05.661Z,46.10
2023-02-17T20:53:34.844Z,46.57
2023-02-17T20:56:02.953Z,48.23
2023-02-17T20:58:30.868Z,47.10
2023-02-17T21:00:58.821Z,51.67
2023-02-17T21:03:26.754Z,47.00
2023-02-17T21:05:54.691Z,47.97
2023-02-17T21:08:22.583Z,47.30
2023-02-17T21:10:51.855Z,43.17
2023-02-17T21:13:19.799Z,43.80
2023-02-17T21:15:48.047Z,46.23
2023-02-17T21:18:16.483Z,44.47
2023-02-17T21:20:44.347Z,45.17
2023-02-17T21:23:12.918Z,41.23
2023-02-17T21:25:40.785Z,48.23
2023-02-17T21:28:10.036Z,48.00
2023-02-17T21:30:37.904Z,46.10
2023-02-17T21:33:06.203Z,46.60
2023-02-17T21:35:34.019Z,49.63
2023-02-17T21:38:01.866Z,44.53
2023-02-17T21:40:29.850Z,47.07
2023-02-17T21:43:15.223Z,47.83
2023-02-17T21:45:45.591Z,48.20
2023-02-17T21:48:13.803Z,45.67
2023-02-17T21:50:41.601Z,46.73
2023-02-17T21:53:09.455Z,50.37
2023-02-17T21:55:37.356Z,50.17
2023-02-17T21:58:05.314Z,49.07
2023-02-17T22:00:33.191Z,46.77
2023-02-17T22:03:02.374Z,48.90
2023-02-17T22:05:31.525Z,44.47
2023-02-17T22:07:59.360Z,45.10
2023-02-17T22:10:27.199Z,44.30
2023-02-17T22:12:55.319Z,42.67
2023-02-17T22:15:23.118Z,43.43
2023-02-17T22:17:50.971Z,43.30
2023-02-17T22:20:20.302Z,43.93
2023-02-17T22:22:48.136Z,43.07
2023-02-17T22:25:16.147Z,42.37
2023-02-17T22:27:44.084Z,40.50
2023-02-17T22:30:12.911Z,41.73
2023-02-17T22:32:42.942Z,42.57
2023-02-17T22:35:11.376Z,43.23
2023-02-17T22:37:40.628Z,44.47
2023-02-17T22:40:10.514Z,42.87
2023-02-17T22:42:38.406Z,41.90
2023-02-17T22:45:07.013Z,41.20
2023-02-17T22:47:34.964Z,44.33
2023-02-17T22:50:02.979Z,44.83
2023-02-17T22:52:31.316Z,41.97
2023-02-17T22:55:00.609Z,41.70
2023-02-17T22:57:28.410Z,42.90
2023-02-17T22:59:56.247Z,39.43
2023-02-17T23:02:24.109Z,41.10
2023-02-17T23:04:51.965Z,42.90
2023-02-17T23:07:19.874Z,38.97
2023-02-17T23:09:47.747Z,41.30
2023-02-17T23:12:16.938Z,39.03
2023-02-17T23:14:46.166Z,40.33
2023-02-17T23:17:15.316Z,40.70
2023-02-17T23:19:43.308Z,38.13
2023-02-17T23:22:15.797Z,38.30
2023-02-17T23:24:43.792Z,36.60
2023-02-17T23:27:11.760Z,34.53
2023-02-17T23:29:42.282Z,39.07
2023-02-17T23:32:10.462Z,35.67
2023-02-17T23:34:39.292Z,32.97
2023-02-17T23:37:07.103Z,27.30
2023-02-17T23:39:38.028Z,27.70
2023-02-17T23:42:06.158Z,22.50
2023-02-17T23:44:34.012Z,21.60
2023-02-17T23:47:03.789Z,24.47
2023-02-17T23:49:31.764Z,21.67
2023-02-17T23:51:59.642Z,23.80
2023-02-17T23:54:27.621Z,18.90
2023-02-17T23:56:55.487Z,17.70
2023-02-17T23:59:23.353Z,15.97
